Aérodrome :
LOGIN :

S'inscrire | Disclaimer

   EN    FR    IT 

 










Légende :    VFR   VFR Marginal   IFR   IFR Intensif   IFR Très Intensif
Visi : 
Plafond : 
>= 8 km
>= 3000ft
5 à 8 km
1000 à 3000 ft
1500m à 5 km
500 à 1000 ft
800 à 1500m
200 à 500 ft
< 800m
< 200 ft
Symboles :   Orages  Brouillard  Fortes neiges  Fortes précipitations  Vent > 20 kt
SIGMETs :   Divers  Orages  Givrage  Turbulence  Onde Orograph.  Cendres Volcan.







- Altitude de l'aérodrome : 755 ft
- Code IATA : DRS


EDDC - Dresden Klotzsche

DERNIER METAR :
  • 161420Z 01004KT 330V040 CAVOK 21/05 Q1018 NOSIG

METARs EXPIRÉS :
  • 161350Z 32003KT 280V020 CAVOK 21/05 Q1018 NOSIG
  • 161320Z VRB03KT CAVOK 22/05 Q1018 NOSIG
  • 161250Z VRB03KT CAVOK 22/05 Q1018 NOSIG
  • 161220Z VRB03KT CAVOK 22/05 Q1018 NOSIG
  • 161150Z 21005KT 110V260 CAVOK 21/05 Q1018 NOSIG

TAF TAF EDDC
Valide du 16 à 12h jusqu'au 17 à 12h UTC


161100Z 1612/1712 16008KT CAVOK
BECMG 1613/1616 VRB03KT
Pas de NOTAMs connus pour ce terrain.



MET'MAP, la Météo Aéronautique d'un coup d'oeil ! - Copyright ORBIFLY Décembre 2007 - Disclaimer

ORBIFLY MET'MAP TEAM :

Programmation & Développement : Alexandra Zaïnal
Conception & Développement : Baudouin d'Aumeries
Co-Programmation & Développement : Marc-Olivier Méhu
Soutien technique & logistique : Manuel Goepfert

Contact : metmap@orbifly.com




SOURCES & CREDITS :

   NOAA